Aérodrome :
LOGIN :

S'inscrire | Disclaimer

   EN    FR    IT 

 










Légende :    VFR   VFR Marginal   IFR   IFR Intensif   IFR Très Intensif
Visi : 
Plafond : 
>= 8 km
>= 3000ft
5 à 8 km
1000 à 3000 ft
1500m à 5 km
500 à 1000 ft
800 à 1500m
200 à 500 ft
< 800m
< 200 ft
Symboles :   Orages  Brouillard  Fortes neiges  Fortes précipitations  Vent > 20 kt
SIGMETs :   Divers  Orages  Givrage  Turbulence  Onde Orograph.  Cendres Volcan.







- Altitude de l'aérodrome : 62 ft
- Code IATA : TAN


GMTT - Tanger Ibn Batouta

DERNIER METAR :
  • 171700Z 06015KT 8000 FEW016 31/18 Q1014 NOSIG

METARs EXPIRÉS :
  • 171600Z 07018KT 8000 FEW013 31/18 Q1014 NOSIG
  • 171530Z 06017KT 8000 FEW013 32/18 Q1014 NOSIG
  • 171500Z 06018KT 8000 FEW013 32/19 Q1014 NOSIG
  • 171430Z 06017KT 8000 FEW013 32/19 Q1015 NOSIG

TAF TAF GMTT
Valide du 17 à 06h jusqu'au 18 à 12h UTC


170500Z 1706/1812 10005KT 8000 FEW016
BECMG 1711/1713 09016KT
Pas de NOTAMs connus pour ce terrain.
2 SIGMETs publiés pour la FIR Casablanca (GMMM) :
 
Orages noyés dans la masse
GMMM SIGMET R2 VALID 171700/172100 GMMC
GMMM CASABLANCA FIR EMBD TS OBS WI N3328 W00258 - N3358 W00525 - N30 04 W00820 - N3007 W00546 - N3223 W00407 - N3230 W00248 TOP FL480 ST NR INTSF=
Orages noyés dans la masse
GMMM SIGMET R1 VALID 171300/171700 GMMC
GMMM CASABLANCA FIR EMBD TS OBS WI N3321 W00509 - N3124 W00742 - N30 04 W00749 - N3133 W00524 - N3237 W00437 TOP FL300 STNR INTSF=



MET'MAP, la Météo Aéronautique d'un coup d'oeil ! - Copyright ORBIFLY Décembre 2007 - Disclaimer

ORBIFLY MET'MAP TEAM :

Programmation & Développement : Alexandra Zaïnal
Conception & Développement : Baudouin d'Aumeries
Co-Programmation & Développement : Marc-Olivier Méhu
Soutien technique & logistique : Manuel Goepfert

Contact : metmap@orbifly.com




SOURCES & CREDITS :

   NOAA